Data for 01/08/2006

Time Sea-Level Adjusted Pressure Absolute Pressure Temperature Relative Humidity Dew Point   
(mb) (inHg) (mb) (inHg) (C) (F) (%) (C) (F)
00:05 1009 29.8 838 24.75 1.2 34.1 83 -1.3 29.6
00:10 1009 29.8 838 24.75 1.6 34.9 82 -1.1 30
00:15 1009 29.8 838 24.75 1.7 35.1 78 -1.7 28.9
00:20 1009 29.8 838 24.75 1.9 35.5 79 -1.2 29.8
00:25 1009 29.8 838 24.75 1.9 35.5 81 -1 30.2
00:30 1009 29.8 838 24.75 1.6 35 83 -1 30.2
00:35 1009 29.8 838 24.75 1.4 34.5 85 -0.8 30.5
00:40 1009 29.8 838 24.75 1.1 34 86 -0.9 30.3
00:45 1009 29.8 838 24.75 1.1 34.1 86 -0.9 30.4
00:50 1009 29.8 838 24.75 1.5 34.7 84 -0.9 30.4
00:55 1009 29.8 838 24.75 1.7 35 84 -0.7 30.7
01:00 1009 29.8 838 24.75 1.3 34.4 87 -0.6 30.8
01:05 1009 29.8 838 24.75 1 33.8 87 -0.9 30.4
01:10 1009 29.8 838 24.75 1.3 34.4 83 -1.3 29.7
01:15 1009 29.8 838 24.75 1.7 35.1 81 -1.2 29.9
01:20 1009 29.8 838 24.75 1.9 35.4 79 -1.3 29.7
01:25 1009 29.8 838 24.75 2 35.7 78 -1.4 29.5
01:30 1009 29.8 838 24.75 2 35.6 79 -1.3 29.7
01:35 1009 29.8 838 24.75 1.9 35.4 80 -1.3 29.7
01:40 1009 29.8 839 24.78 1.8 35.2 80 -1.4 29.5
01:45 1009 29.8 839 24.78 1.8 35.2 80 -1.4 29.5
01:50 1009 29.8 839 24.78 1.7 35 81 -1.3 29.7
01:55 1010 29.83 839 24.78 1.7 35 81 -1.3 29.7
02:00 1010 29.83 839 24.78 1.7 35.1 81 -1.1 30
02:05 1010 29.83 839 24.78 1.5 34.8 80 -1.5 29.4
02:10 1010 29.83 839 24.78 1.6 34.9 76 -2.1 28.2
02:15 1010 29.83 839 24.78 2 35.6 75 -2 28.4
02:20 1010 29.83 839 24.78 2 35.6 76 -1.8 28.8
02:25 1010 29.83 839 24.78 1.8 35.3 80 -1.3 29.7
02:30 1010 29.83 839 24.78 1.3 34.3 83 -1.3 29.7
02:35 1010 29.83 839 24.78 1.1 33.9 84 -1.3 29.7
02:40 1010 29.83 839 24.78 1 33.8 86 -1.2 29.9
02:45 1010 29.83 839 24.78 0.7 33.3 89 -0.9 30.4
02:50 1010 29.83 839 24.78 0.5 32.9 91 -0.7 30.7
02:55 1010 29.83 839 24.78 0.4 32.7 93 -0.6 30.9
03:00 1010 29.83 840 24.81 0.1 32.3 95 -0.6 30.9
03:05 1010 29.83 840 24.81 0 32 96 -0.6 31
03:10 1010 29.83 840 24.81 0 32 97 -0.4 31.2
03:15 1010 29.83 840 24.81 0 32 97 -0.4 31.2
03:20 1010 29.83 840 24.81 -0.1 31.7 97 -0.5 31.1
03:25 1010 29.83 840 24.81 -0.1 31.8 98 -0.5 31.2
03:30 1010 29.83 840 24.81 -0 31.9 98 -0.3 31.4
03:35 1010 29.83 840 24.81 0 32 98 -0.3 31.4
03:40 1010 29.83 840 24.81 0.1 32.1 98 -0.3 31.5
03:45 1010 29.83 840 24.81 0.1 32.2 98 -0.2 31.6
03:50 1010 29.83 840 24.81 0.2 32.3 98 -0.2 31.7
03:55 1010 29.83 840 24.81 0 32 97 -0.3 31.4
04:00 1011 29.85 840 24.81 -0 31.9 98 -0.3 31.4
04:05 1010 29.83 840 24.81 0.1 32.1 98 -0.2 31.6
04:10 1011 29.85 840 24.81 0.1 32.1 98 -0.3 31.5
04:15 1011 29.85 840 24.81 -0 32 98 -0.4 31.4
04:20 1011 29.85 840 24.81 0 32 98 -0.3 31.5
04:25 1011 29.85 840 24.81 0.1 32.1 98 -0.2 31.6
04:30 1011 29.85 840 24.81 0.1 32.2 98 -0.2 31.6
04:35 1011 29.85 840 24.81 0.2 32.3 98 -0.1 31.8
04:40 1011 29.85 840 24.81 0.2 32.3 98 -0.2 31.7
04:45 1011 29.85 840 24.81 0.2 32.3 97 -0.2 31.6
04:50 1011 29.85 840 24.81 0 32.1 98 -0.3 31.4
04:55 1011 29.85 840 24.81 -0 31.9 98 -0.4 31.3
05:00 1011 29.85 840 24.81 -0.1 31.8 98 -0.4 31.2
05:05 1011 29.85 840 24.81 -0.2 31.6 98 -0.5 31.1
05:10 1011 29.85 840 24.81 -0.3 31.5 98 -0.6 31
05:15 1011 29.85 840 24.81 -0.2 31.7 98 -0.4 31.2
05:20 1011 29.85 840 24.81 -0.1 31.9 99 -0.3 31.5
05:25 1011 29.85 840 24.81 0 32 98 -0.2 31.6
05:30 1011 29.85 840 24.81 -0.1 31.9 98 -0.3 31.4
05:35 1011 29.85 840 24.81 -0 31.9 98 -0.3 31.4
05:40 1011 29.85 840 24.81 0 32 98 -0.3 31.5
05:45 1011 29.85 840 24.81 -0 32 98 -0.3 31.4
05:50 1011 29.85 840 24.81 -0.1 31.8 98 -0.4 31.3
05:55 1011 29.85 840 24.81 -0.1 31.8 98 -0.4 31.3
06:00 1011 29.85 840 24.81 -0.2 31.7 98 -0.4 31.2
06:05 1011 29.85 840 24.81 -0.3 31.5 98 -0.5 31.1
06:10 1011 29.85 840 24.81 -0.4 31.4 99 -0.5 31.1
06:15 1011 29.85 840 24.81 -0.4 31.3 99 -0.5 31
06:20 1011 29.85 840 24.81 -0.4 31.2 99 -0.6 31
06:25 1011 29.85 840 24.81 -0.4 31.3 99 -0.5 31.1
06:30 1011 29.85 840 24.81 -0.4 31.2 99 -0.5 31.1
06:35 1011 29.85 840 24.81 -0.4 31.3 99 -0.5 31.2
06:40 1011 29.85 840 24.81 -0.4 31.3 99 -0.5 31.2
06:45 1011 29.85 841 24.83 -0.3 31.4 99 -0.4 31.3
06:50 1011 29.85 841 24.83 -0.3 31.5 99 -0.4 31.3
06:55 1011 29.85 841 24.83 -0.2 31.6 100 -0.3 31.5
07:00 1012 29.88 841 24.83 -0.1 31.9 99 -0.1 31.7
07:05 1012 29.88 841 24.83 -0 31.9 99 -0.1 31.8
07:10 1012 29.88 841 24.83 -0 32 99 -0.1 31.8
07:15 1012 29.88 841 24.83 -0 31.9 99 -0.1 31.7
07:20 1012 29.88 841 24.83 -0.1 31.8 98 -0.3 31.4
07:25 1012 29.88 841 24.83 -0.6 30.9 98 -0.9 30.4
07:30 1012 29.88 841 24.83 -0.9 30.4 98 -1.1 30
07:35 1012 29.88 841 24.83 -1 30.1 99 -1.2 29.8
07:40 1012 29.88 841 24.83 -1.1 30 99 -1.3 29.7
07:45 1012 29.88 841 24.83 -1.1 29.9 99 -1.3 29.6
07:50 1012 29.88 842 24.86 -1.1 30 99 -1.3 29.6
07:55 1012 29.88 842 24.86 -1.2 29.9 98 -1.4 29.5
08:00 1013 29.91 842 24.86 -1.2 29.9 98 -1.4 29.4
08:05 1013 29.91 842 24.86 -1.1 29.9 98 -1.5 29.3
08:10 1013 29.91 842 24.86 -1.2 29.9 97 -1.6 29
08:15 1013 29.91 842 24.86 -1.2 29.9 96 -1.7 28.9
08:20 1013 29.91 842 24.86 -1.2 29.8 96 -1.8 28.7
08:25 1013 29.91 842 24.86 -1.3 29.7 95 -2 28.5
08:30 1013 29.91 842 24.86 -1.3 29.7 95 -1.9 28.5
08:35 1013 29.91 842 24.86 -1.2 29.8 94 -2.1 28.3
08:40 1013 29.91 843 24.89 -1.2 29.8 94 -2 28.3
08:45 1013 29.91 843 24.89 -1.2 29.9 95 -1.9 28.6
08:50 1014 29.94 843 24.89 -1.1 30 95 -1.8 28.7
08:55 1014 29.94 843 24.89 -1 30.2 94 -1.8 28.7
09:00 1014 29.94 843 24.89 -1.1 30 93 -2.1 28.3
09:05 1014 29.94 843 24.89 -1.2 29.9 94 -2 28.4
09:10 1014 29.94 843 24.89 -1.2 29.8 95 -2 28.4
09:15 1014 29.94 843 24.89 -1.3 29.7 95 -2 28.4
09:20 1014 29.94 843 24.89 -1.3 29.7 96 -1.9 28.6
09:25 1014 29.94 843 24.89 -1.3 29.7 96 -1.9 28.5
09:30 1014 29.94 843 24.89 -1.2 29.8 96 -1.7 28.9
09:35 1014 29.94 844 24.92 -1.2 29.9 96 -1.8 28.8
09:40 1015 29.97 844 24.92 -1.2 29.9 96 -1.8 28.8
09:45 1015 29.97 844 24.92 -1.1 29.9 96 -1.7 28.9
09:50 1015 29.97 844 24.92 -1 30.2 96 -1.6 29.2
09:55 1015 29.97 844 24.92 -1 30.2 96 -1.6 29.1
10:00 1015 29.97 844 24.92 -0.9 30.4 95 -1.6 29.1
10:05 1015 29.97 844 24.92 -0.9 30.5 95 -1.6 29.2
10:10 1015 29.97 844 24.92 -0.7 30.7 94 -1.6 29.1
10:15 1015 29.97 844 24.92 -0.7 30.8 93 -1.6 29.1
10:20 1015 29.97 844 24.92 -0.7 30.8 93 -1.6 29.1
10:25 1015 29.97 845 24.95 -0.7 30.8 93 -1.6 29.1
10:30 1015 29.97 845 24.95 -0.6 30.9 93 -1.7 29
10:35 1016 30 845 24.95 -0.5 31 92 -1.7 29
10:40 1016 30 845 24.95 -0.5 31 91 -1.8 28.7
10:45 1016 30 845 24.95 -0.5 31.1 91 -1.8 28.7
10:50 1016 30 845 24.95 -0.4 31.3 91 -1.7 29
10:55 1016 30 845 24.95 -0.2 31.6 90 -1.7 29
11:00 1016 30 845 24.95 -0.2 31.6 90 -1.7 29
11:05 1016 30 845 24.95 -0.3 31.4 90 -1.8 28.8
11:10 1016 30 845 24.95 -0.5 31 90 -2 28.4
11:15 1016 30 845 24.95 -0.7 30.8 91 -2 28.4
11:20 1016 30 845 24.95 -0.7 30.7 92 -1.9 28.5
11:25 1016 30 845 24.95 -0.7 30.7 92 -1.9 28.5
11:30 1016 30 845 24.95 -0.8 30.5 92 -2 28.5
11:35 1016 30 845 24.95 -0.9 30.4 91 -2.1 28.2
11:40 1016 30 845 24.95 -1.1 30.1 92 -2.3 27.9
11:45 1016 30 845 24.95 -1.2 29.9 92 -2.3 27.9
11:50 1016 30 845 24.95 -1.3 29.6 92 -2.4 27.6
11:55 1016 30 845 24.95 -1.2 29.9 93 -2.1 28.1
12:00 1016 30 845 24.95 -0.9 30.4 92 -2 28.4
12:05 1016 30 846 24.98 -0.8 30.5 92 -2 28.4
12:10 1016 30 846 24.98 -0.9 30.4 91 -2.1 28.2
12:15 1016 30 846 24.98 -1 30.2 92 -2.1 28.1
12:20 1017 30.03 846 24.98 -1.2 29.9 92 -2.3 27.9
12:25 1017 30.03 846 24.98 -1.2 29.9 93 -2.2 28
12:30 1017 30.03 846 24.98 -1.1 30 93 -2.1 28.1
12:35 1017 30.03 846 24.98 -1 30.1 93 -2.1 28.3
12:40 1017 30.03 846 24.98 -1 30.2 92 -2.1 28.3
12:45 1017 30.03 846 24.98 -0.8 30.5 92 -2 28.5
12:50 1017 30.03 846 24.98 -0.8 30.6 91 -2.1 28.3
12:55 1017 30.03 846 24.98 -0.7 30.8 89 -2.2 28
13:00 1017 30.03 846 24.98 -0.7 30.8 90 -2.1 28.3
13:05 1017 30.03 846 24.98 -0.3 31.4 89 -2 28.5
13:10 1017 30.03 846 24.98 -0.1 31.8 88 -1.9 28.6
13:15 1017 30.03 847 25.01 0 32 86 -2 28.4
13:20 1017 30.03 847 25.01 -0.3 31.4 88 -2.1 28.3
13:25 1017 30.03 847 25.01 -0.4 31.3 88 -2.1 28.1
13:30 1017 30.03 847 25.01 -0.4 31.3 87 -2.3 27.8
13:35 1018 30.06 847 25.01 -0.5 31.2 88 -2.3 27.9
13:40 1018 30.06 847 25.01 -0.4 31.2 87 -2.3 27.9
13:45 1018 30.06 847 25.01 -0.2 31.6 86 -2.3 27.8
13:50 1018 30.06 847 25.01 -0.2 31.7 85 -2.4 27.7
13:55 1018 30.06 847 25.01 -0.2 31.6 86 -2.3 27.8
14:00 1018 30.06 847 25.01 -0.2 31.6 85 -2.4 27.6
14:05 1018 30.06 847 25.01 -0.2 31.6 86 -2.4 27.8
14:10 1018 30.06 847 25.01 -0.4 31.4 87 -2.3 27.9
14:15 1018 30.06 847 25.01 -0.3 31.4 86 -2.4 27.6
14:20 1018 30.06 847 25.01 -0.4 31.3 86 -2.4 27.6
14:25 1018 30.06 848 25.04 -0.5 31 87 -2.4 27.6
14:30 1018 30.06 848 25.04 -0.7 30.7 87 -2.6 27.4
14:35 1018 30.06 848 25.04 -0.7 30.7 88 -2.4 27.7
14:40 1019 30.09 848 25.04 -0.7 30.8 88 -2.5 27.6
14:45 1019 30.09 848 25.04 -0.8 30.5 89 -2.5 27.5
14:50 1019 30.09 848 25.04 -0.7 30.8 87 -2.6 27.4
14:55 1019 30.09 848 25.04 -0.6 30.8 87 -2.6 27.3
15:00 1019 30.09 848 25.04 -0.7 30.7 87 -2.6 27.2
15:05 1019 30.09 848 25.04 -0.9 30.4 88 -2.6 27.2
15:10 1019 30.09 848 25.04 -1 30.2 89 -2.6 27.3
15:15 1019 30.09 848 25.04 -0.9 30.4 88 -2.7 27.2
15:20 1019 30.09 848 25.04 -0.9 30.3 86 -2.9 26.7
15:25 1019 30.09 848 25.04 -1.2 29.8 88 -3 26.5
15:30 1019 30.09 849 25.07 -1.1 30 87 -3 26.5
15:35 1019 30.09 849 25.07 -1.2 29.9 86 -3.2 26.3
15:40 1019 30.09 849 25.07 -1.1 30 85 -3.3 26.1
15:45 1020 30.12 849 25.07 -1 30.2 83 -3.5 25.7
15:50 1020 30.12 849 25.07 -0.9 30.3 83 -3.5 25.6
15:55 1020 30.12 849 25.07 -0.7 30.7 80 -3.7 25.3
16:00 1020 30.12 849 25.07 -0.6 30.9 82 -3.4 25.9
16:05 1020 30.12 849 25.07 -0.6 31 77 -4.1 24.7
16:10 1020 30.12 849 25.07 -0.6 30.9 83 -3.2 26.3
16:15 1020 30.12 849 25.07 -0.7 30.7 85 -2.9 26.7
16:20 1020 30.12 849 25.07 -0.8 30.5 82 -3.5 25.7
16:25 1020 30.12 849 25.07 -0.8 30.5 81 -3.8 25.2
16:30 1020 30.12 849 25.07 -0.8 30.5 78 -4.3 24.3
16:35 1020 30.12 850 25.1 -0.9 30.4 76 -4.6 23.8
16:40 1020 30.12 850 25.1 -0.9 30.3 76 -4.6 23.7
16:45 1020 30.12 850 25.1 -0.9 30.4 74 -4.9 23.1
16:50 1021 30.15 850 25.1 -0.9 30.3 76 -4.7 23.5
16:55 1021 30.15 850 25.1 -1 30.3 76 -4.7 23.5
17:00 1021 30.15 850 25.1 -1 30.2 75 -4.9 23.2
17:05 1021 30.15 850 25.1 -0.9 30.3 74 -5 23
17:10 1021 30.15 850 25.1 -1 30.3 74 -5 23
17:15 1021 30.15 850 25.1 -0.9 30.4 74 -5 23.1
17:20 1021 30.15 850 25.1 -0.9 30.4 73 -5 22.9
17:25 1021 30.15 850 25.1 -1 30.3 73 -5.2 22.6
17:30 1021 30.15 850 25.1 -1 30.3 72 -5.4 22.3
17:35 1021 30.15 850 25.1 -0.9 30.4 72 -5.4 22.2
17:40 1021 30.15 850 25.1 -0.9 30.3 71 -5.6 22
17:45 1021 30.15 850 25.1 -1.1 30 71 -5.7 21.8
17:50 1021 30.15 851 25.13 -1.3 29.7 72 -5.8 21.6
17:55 1021 30.15 851 25.13 -1.3 29.7 70 -6.1 21
18:00 1021 30.15 851 25.13 -1.2 29.9 71 -5.8 21.6
18:05 1022 30.18 851 25.13 -1.2 29.8 71 -5.7 21.7
18:10 1022 30.18 851 25.13 -1.2 29.8 69 -6.1 21.1
18:15 1022 30.18 851 25.13 -1.3 29.7 70 -6.1 21
18:20 1022 30.18 851 25.13 -1.3 29.7 69 -6.2 20.8
18:25 1022 30.18 851 25.13 -1.4 29.5 69 -6.4 20.4
18:30 1022 30.18 851 25.13 -1.4 29.5 69 -6.4 20.4
18:35 1022 30.18 851 25.13 -1.4 29.5 67 -6.7 20
18:40 1022 30.18 851 25.13 -1.5 29.3 67 -6.9 19.7
18:45 1022 30.18 851 25.13 -1.6 29.2 67 -6.8 19.7
18:50 1022 30.18 851 25.13 -1.5 29.3 67 -6.8 19.8
18:55 1022 30.18 851 25.13 -1.7 29 67 -7 19.3
19:00 1022 30.18 851 25.13 -1.9 28.6 66 -7.4 18.6
19:05 1022 30.18 851 25.13 -2 28.3 67 -7.4 18.6
19:10 1022 30.18 851 25.13 -2.2 28.1 67 -7.6 18.3
19:15 1022 30.18 851 25.13 -2.3 27.9 66 -7.8 17.9
19:20 1022 30.18 851 25.13 -2.3 27.8 64 -8.1 17.3
19:25 1022 30.18 851 25.13 -2.6 27.3 65 -8.4 16.9
19:30 1022 30.18 851 25.13 -3.1 26.4 65 -8.7 16.3
19:35 1022 30.18 851 25.13 -3.5 25.8 67 -8.7 16.3
19:40 1022 30.18 851 25.13 -3.5 25.8 67 -8.8 16.2
19:45 1022 30.18 851 25.13 -3.3 26.1 66 -8.8 16.2
19:50 1022 30.18 851 25.13 -3.3 26.1 65 -9 15.9
19:55 1022 30.18 851 25.13 -3.3 26.1 64 -9.1 15.6
20:00 1022 30.18 851 25.13 -3.5 25.7 67 -8.8 16.1
20:05 1022 30.18 851 25.13 -3.7 25.4 69 -8.6 16.5
20:10 1022 30.18 851 25.13 -3.4 25.8 67 -8.6 16.5
20:15 1022 30.18 851 25.13 -3.5 25.7 67 -8.8 16.2
20:20 1022 30.18 851 25.13 -3.1 26.4 65 -8.9 16
20:25 1022 30.18 851 25.13 -2.9 26.8 65 -8.5 16.7
20:30 1022 30.18 851 25.13 -3.4 25.9 67 -8.7 16.3
20:35 1022 30.18 851 25.13 -3.9 25 69 -8.8 16.1
20:40 1022 30.18 851 25.13 -3.9 24.9 67 -9.2 15.5
20:45 1022 30.18 851 25.13 -3.9 25 67 -9.2 15.4
20:50 1022 30.18 851 25.13 -3.9 25 67 -9.1 15.7
20:55 1022 30.18 851 25.13 -3.9 25 68 -9 15.9
21:00 1022 30.18 851 25.13 -3.6 25.4 67 -9 15.9
21:05 1022 30.18 851 25.13 -4 24.7 70 -8.7 16.4
21:10 1022 30.18 852 25.16 -4.2 24.5 71 -8.7 16.3
21:15 1022 30.18 852 25.16 -4.1 24.6 70 -8.9 16.1
21:20 1023 30.21 852 25.16 -4.4 24.1 71 -8.9 15.9
21:25 1023 30.21 852 25.16 -4.6 23.8 71 -9 15.8
21:30 1023 30.21 852 25.16 -4.7 23.5 71 -9.3 15.3
21:35 1023 30.21 852 25.16 -5.2 22.7 72 -9.5 14.9
21:40 1023 30.21 852 25.16 -5.4 22.3 73 -9.5 14.9
21:45 1023 30.21 852 25.16 -5.4 22.3 74 -9.3 15.3
21:50 1023 30.21 852 25.16 -5.4 22.2 74 -9.3 15.2
21:55 1023 30.21 852 25.16 -5.2 22.7 73 -9.2 15.4
22:00 1023 30.21 852 25.16 -5 23 73 -9.2 15.5
22:05 1023 30.21 852 25.16 -4.6 23.8 72 -9 15.9
22:10 1023 30.21 852 25.16 -5 23 75 -8.8 16.2
22:15 1023 30.21 852 25.16 -5.2 22.6 76 -8.7 16.3
22:20 1023 30.21 852 25.16 -5.2 22.6 76 -8.8 16.2
22:25 1023 30.21 852 25.16 -5.3 22.5 76 -8.9 16
22:30 1023 30.21 852 25.16 -6.2 20.9 80 -9.2 15.5
22:35 1023 30.21 852 25.16 -6.3 20.7 81 -8.9 15.9
22:40 1023 30.21 853 25.19 -5.6 22 78 -8.9 16.1
22:45 1023 30.21 853 25.19 -5.3 22.5 79 -8.4 16.8
22:50 1024 30.24 853 25.19 -5.4 22.3 78 -8.6 16.6
22:55 1023 30.21 853 25.19 -5.4 22.2 79 -8.6 16.5
23:00 1023 30.21 853 25.19 -5.6 22 80 -8.5 16.6
23:05 1023 30.21 853 25.19 -5.5 22.1 80 -8.4 16.8
23:10 1023 30.21 853 25.19 -5.2 22.7 77 -8.6 16.6
23:15 1024 30.24 853 25.19 -4.6 23.8 71 -9 15.8
23:20 1024 30.24 853 25.19 -4.2 24.4 70 -8.9 16
23:25 1024 30.24 853 25.19 -4.3 24.2 70 -9.1 15.7
23:30 1024 30.24 853 25.19 -4.7 23.5 70 -9.3 15.2
23:35 1024 30.24 853 25.19 -4.9 23.1 71 -9.4 15.1
23:40 1024 30.24 853 25.19 -5.2 22.6 71 -9.6 14.6
23:45 1024 30.24 853 25.19 -5.6 21.9 72 -9.9 14.1
23:50 1024 30.24 853 25.19 -6.2 20.8 74 -10.2 13.6
23:55 1024 30.24 853 25.19 -5.9 21.3 74 -9.9 14.3
24:00 1024 30.24 853 25.19 -5.5 22.2 74 -9.4 15.1